createdAt,value
2018-12-17T00:02:26.412Z,102031.88
2018-12-17T00:04:55.476Z,102028.83
2018-12-17T00:07:24.566Z,102031.27
2018-12-17T00:09:53.636Z,102032.25
2018-12-17T00:12:22.766Z,102030.45
2018-12-17T00:14:51.934Z,102031.64
2018-12-17T00:17:20.989Z,102027.58
2018-12-17T00:19:50.282Z,102025.03
2018-12-17T00:22:19.158Z,102033.45
2018-12-17T00:24:48.238Z,102037.94
2018-12-17T00:27:17.263Z,102033.98
2018-12-17T00:29:46.376Z,102027.73
2018-12-17T00:32:15.405Z,102030.57
2018-12-17T00:34:44.472Z,102039.47
2018-12-17T00:37:13.541Z,102032.99
2018-12-17T00:39:42.621Z,102033.97
2018-12-17T00:42:11.650Z,102034.89
2018-12-17T00:44:40.993Z,102030.56
2018-12-17T00:47:10.047Z,102031.00
2018-12-17T00:49:39.108Z,102033.23
2018-12-17T00:52:08.188Z,102037.66
2018-12-17T00:54:37.270Z,102040.33
2018-12-17T00:57:06.297Z,102041.53
2018-12-17T00:59:35.644Z,102044.11
2018-12-17T01:02:04.708Z,102049.99
2018-12-17T01:04:33.778Z,102051.05
2018-12-17T01:07:02.842Z,102046.89
2018-12-17T01:09:31.921Z,102047.42
2018-12-17T01:12:00.953Z,102053.55
2018-12-17T01:14:30.091Z,102048.66
2018-12-17T01:16:59.119Z,102048.83
2018-12-17T01:19:28.401Z,102046.30
2018-12-17T01:21:57.240Z,102044.13
2018-12-17T01:24:26.314Z,102037.61
2018-12-17T01:26:55.350Z,102034.42
2018-12-17T01:29:24.466Z,102035.12
2018-12-17T01:31:53.498Z,102039.77
2018-12-17T01:34:22.580Z,102037.17
2018-12-17T01:36:51.683Z,102035.65
2018-12-17T01:39:20.766Z,102039.13
2018-12-17T01:41:49.798Z,102048.58
2018-12-17T01:44:18.907Z,102050.59
2018-12-17T01:46:47.939Z,102056.77
2018-12-17T01:49:17.014Z,102049.63
2018-12-17T01:51:46.094Z,102058.79
2018-12-17T01:54:15.170Z,102052.45
2018-12-17T01:56:44.205Z,102052.81
2018-12-17T01:59:13.304Z,102051.06
2018-12-17T02:01:42.337Z,102052.28
2018-12-17T02:04:11.623Z,102054.23
2018-12-17T02:06:40.486Z,102058.03
2018-12-17T02:09:09.613Z,102064.80
2018-12-17T02:11:38.644Z,102070.87
2018-12-17T02:14:07.784Z,102072.20
2018-12-17T02:16:36.884Z,102070.71
2018-12-17T02:19:05.960Z,102076.67
2018-12-17T02:21:35.024Z,102073.38
2018-12-17T02:24:04.180Z,102078.36
2018-12-17T02:26:33.133Z,102069.64
2018-12-17T02:29:02.234Z,102068.50
2018-12-17T02:31:31.290Z,102074.25
2018-12-17T02:34:00.349Z,102076.36
2018-12-17T02:36:29.475Z,102073.17
2018-12-17T02:38:58.567Z,102075.04
2018-12-17T02:41:27.601Z,102071.44
2018-12-17T02:43:56.702Z,102080.08
2018-12-17T02:46:25.741Z,102081.50
2018-12-17T02:48:55.038Z,102084.45
2018-12-17T02:51:23.884Z,102087.56
2018-12-17T02:53:52.955Z,102080.69
2018-12-17T02:56:21.975Z,102083.46
2018-12-17T02:58:51.371Z,102084.05
2018-12-17T03:01:20.203Z,102079.92
2018-12-17T03:03:49.267Z,102087.70
2018-12-17T03:06:18.319Z,102081.95
2018-12-17T03:08:47.590Z,102078.25
2018-12-17T03:11:16.412Z,102078.78
2018-12-17T03:13:45.524Z,102076.69
2018-12-17T03:16:15.572Z,102076.09
2018-12-17T03:18:44.650Z,102072.92
2018-12-17T03:21:13.758Z,102074.72
2018-12-17T03:23:42.794Z,102071.97
2018-12-17T03:26:11.848Z,102077.77
2018-12-17T03:28:40.933Z,102082.22
2018-12-17T03:31:10.003Z,102082.00
2018-12-17T03:33:39.069Z,102078.23
2018-12-17T03:36:08.152Z,102079.56
2018-12-17T03:38:37.205Z,102082.95
2018-12-17T03:41:06.264Z,102079.84
2018-12-17T03:43:35.364Z,102076.84
2018-12-17T03:46:04.427Z,102077.89
2018-12-17T03:48:33.483Z,102081.55
2018-12-17T03:51:02.564Z,102085.80
2018-12-17T03:53:31.617Z,102092.44
2018-12-17T03:56:00.661Z,102091.12
2018-12-17T03:58:29.744Z,102102.00
2018-12-17T04:00:58.792Z,102097.00
2018-12-17T04:03:27.858Z,102097.91
2018-12-17T04:05:56.974Z,102100.38
2018-12-17T04:08:26.038Z,102103.00
2018-12-17T04:10:55.101Z,102099.53
2018-12-17T04:13:24.200Z,102100.48
2018-12-17T04:15:53.257Z,102100.86
2018-12-17T04:18:22.310Z,102096.86
2018-12-17T04:20:51.394Z,102094.03
2018-12-17T04:23:20.450Z,102097.56
2018-12-17T04:25:49.517Z,102092.27
2018-12-17T04:28:18.666Z,102094.19
2018-12-17T04:30:47.727Z,102105.70
2018-12-17T04:33:16.785Z,102104.11
2018-12-17T04:35:45.867Z,102103.69
2018-12-17T04:38:14.929Z,102109.17
2018-12-17T04:40:43.981Z,102118.11
2018-12-17T04:43:13.066Z,102112.58
2018-12-17T04:45:42.116Z,102115.89
2018-12-17T04:48:11.181Z,102121.89
2018-12-17T04:50:40.380Z,102122.39
2018-12-17T04:53:09.442Z,102121.14
2018-12-17T04:55:38.493Z,102128.91
2018-12-17T04:58:07.794Z,102128.41
2018-12-17T05:00:36.847Z,102130.63
2018-12-17T05:03:05.908Z,102132.58
2018-12-17T05:05:35.011Z,102131.13
2018-12-17T05:08:04.053Z,102130.17
2018-12-17T05:10:33.113Z,102128.58
2018-12-17T05:13:02.213Z,102133.50
2018-12-17T05:15:31.317Z,102133.40
2018-12-17T05:18:00.328Z,102138.05
2018-12-17T05:20:29.439Z,102135.03
2018-12-17T05:22:58.494Z,102136.11
2018-12-17T05:25:27.558Z,102136.92
2018-12-17T05:27:56.640Z,102133.56
2018-12-17T05:30:25.708Z,102145.39
2018-12-17T05:32:54.758Z,102141.97
2018-12-17T05:35:23.887Z,102146.42
2018-12-17T05:37:52.951Z,102143.28
2018-12-17T05:40:22.002Z,102154.44
2018-12-17T05:42:51.097Z,102155.89
2018-12-17T05:45:20.313Z,102151.09
2018-12-17T05:47:49.378Z,102155.89
2018-12-17T05:50:18.453Z,102158.83
2018-12-17T05:52:47.510Z,102160.89
2018-12-17T05:55:16.594Z,102162.53
2018-12-17T05:57:45.890Z,102162.58
2018-12-17T06:00:14.944Z,102161.92
2018-12-17T06:02:44.006Z,102164.81
2018-12-17T06:05:13.410Z,102162.64
2018-12-17T06:07:42.450Z,102163.88
2018-12-17T06:10:11.509Z,102166.12
2018-12-17T06:12:40.586Z,102171.03
2018-12-17T06:15:09.662Z,102167.94
2018-12-17T06:17:38.708Z,102166.55
2018-12-17T06:20:07.839Z,102173.68
2018-12-17T06:22:36.892Z,102174.61
2018-12-17T06:25:05.967Z,102166.91
2018-12-17T06:27:37.095Z,102169.13
2018-12-17T06:30:04.111Z,102170.27
2018-12-17T06:32:33.135Z,102172.83
2018-12-17T06:35:02.243Z,102169.03
2018-12-17T06:37:31.279Z,102171.31
2018-12-17T06:40:00.337Z,102184.44
2018-12-17T06:42:29.840Z,102191.28
2018-12-17T06:44:58.901Z,102186.05
2018-12-17T06:47:28.346Z,102192.52
2018-12-17T06:49:57.442Z,102186.98
2018-12-17T06:52:26.495Z,102198.86
2018-12-17T06:54:55.553Z,102207.48
2018-12-17T06:57:24.640Z,102207.19
2018-12-17T06:59:53.704Z,102211.42
2018-12-17T07:02:22.755Z,102202.05
2018-12-17T07:04:51.852Z,102203.66
2018-12-17T07:07:20.922Z,102210.45
2018-12-17T07:09:49.982Z,102213.13
2018-12-17T07:12:19.071Z,102213.61
2018-12-17T07:14:48.131Z,102221.27
2018-12-17T07:17:17.207Z,102222.56
2018-12-17T07:19:46.297Z,102226.70
2018-12-17T07:22:15.383Z,102228.70
2018-12-17T07:24:44.445Z,102223.75
2018-12-17T07:27:13.540Z,102226.94
2018-12-17T07:29:49.559Z,102226.80
2018-12-17T07:32:11.665Z,102233.29
2018-12-17T07:34:40.758Z,102230.87
2018-12-17T07:37:09.823Z,102227.50
2018-12-17T07:39:38.890Z,102228.99
2018-12-17T07:42:07.981Z,102233.06
2018-12-17T07:44:37.047Z,102240.16
2018-12-17T07:47:06.109Z,102237.78
2018-12-17T07:49:35.217Z,102242.98
2018-12-17T07:52:04.275Z,102244.83
2018-12-17T07:54:33.330Z,102248.05
2018-12-17T07:57:02.409Z,102245.34
2018-12-17T07:59:31.466Z,102243.07
2018-12-17T08:02:00.530Z,102237.81
2018-12-17T08:04:29.615Z,102242.31
2018-12-17T08:06:58.672Z,102246.39
2018-12-17T08:09:27.723Z,102243.79
2018-12-17T08:11:56.822Z,102244.70
2018-12-17T08:14:25.879Z,102251.30
2018-12-17T08:16:54.940Z,102250.77
2018-12-17T08:19:24.029Z,102264.50
2018-12-17T08:21:53.091Z,102263.52
2018-12-17T08:24:22.145Z,102274.83
2018-12-17T08:26:51.259Z,102278.13
2018-12-17T08:29:20.615Z,102275.62
2018-12-17T08:31:49.657Z,102289.10
2018-12-17T08:34:19.004Z,102282.30
2018-12-17T08:36:48.052Z,102286.50
2018-12-17T08:39:17.141Z,102285.78
2018-12-17T08:41:46.186Z,102290.38
2018-12-17T08:44:15.243Z,102286.83
2018-12-17T08:46:44.288Z,102293.97
2018-12-17T08:49:13.376Z,102296.22
2018-12-17T08:51:42.433Z,102297.94
2018-12-17T08:54:11.501Z,102299.05
2018-12-17T08:56:40.607Z,102298.13
2018-12-17T08:59:09.669Z,102300.13
2018-12-17T09:01:38.729Z,102310.73
2018-12-17T09:04:07.817Z,102315.98
2018-12-17T09:06:36.866Z,102319.84
2018-12-17T09:09:05.952Z,102321.80
2018-12-17T09:11:35.037Z,102327.98
2018-12-17T09:14:04.094Z,102325.59
2018-12-17T09:16:33.159Z,102320.75
2018-12-17T09:19:02.281Z,102322.51
2018-12-17T09:21:31.336Z,102329.62
2018-12-17T09:24:00.400Z,102329.27
2018-12-17T09:26:29.486Z,102326.83
2018-12-17T09:28:58.541Z,102329.59
2018-12-17T09:31:27.670Z,102324.71
2018-12-17T09:33:56.685Z,102327.06
2018-12-17T09:36:26.735Z,102332.39
2018-12-17T09:38:55.773Z,102330.64
2018-12-17T09:41:24.890Z,102328.70
2018-12-17T09:43:53.932Z,102332.05
2018-12-17T09:46:23.011Z,102337.59
2018-12-17T09:48:52.067Z,102333.16
2018-12-17T09:51:21.155Z,102332.91
2018-12-17T09:53:50.196Z,102332.85
2018-12-17T09:56:19.507Z,102337.59
2018-12-17T09:58:48.336Z,102335.37
2018-12-17T10:01:17.417Z,102344.21
2018-12-17T10:03:46.526Z,102337.02
2018-12-17T10:06:15.597Z,102332.37
2018-12-17T10:08:44.633Z,102334.81
2018-12-17T10:11:13.734Z,102340.45
2018-12-17T10:13:42.777Z,102333.23
2018-12-17T10:16:11.841Z,102334.48
2018-12-17T10:18:40.905Z,102327.95
2018-12-17T10:21:09.977Z,102335.78
2018-12-17T10:23:39.247Z,102330.17
2018-12-17T10:26:08.350Z,102331.55
2018-12-17T10:28:37.689Z,102335.70
2018-12-17T10:31:06.741Z,102337.71
2018-12-17T10:33:35.903Z,102337.57
2018-12-17T10:36:04.973Z,102334.41
2018-12-17T10:38:34.003Z,102328.64
2018-12-17T10:41:03.117Z,102329.91
2018-12-17T10:43:32.151Z,102331.61
2018-12-17T10:46:01.220Z,102322.73
2018-12-17T10:48:30.294Z,102325.27
2018-12-17T10:50:59.371Z,102324.60
2018-12-17T10:53:28.414Z,102323.36
2018-12-17T10:55:57.724Z,102327.52
2018-12-17T10:58:26.547Z,102328.08
2018-12-17T11:01:01.237Z,102317.83
2018-12-17T11:03:30.278Z,102319.67
2018-12-17T11:05:59.334Z,102315.92
2018-12-17T11:08:28.613Z,102321.85
2018-12-17T11:10:57.661Z,102327.16
2018-12-17T11:13:26.717Z,102315.83
2018-12-17T11:15:55.805Z,102323.22
2018-12-17T11:18:24.869Z,102318.20
2018-12-17T11:20:53.931Z,102324.20
2018-12-17T11:23:23.018Z,102319.30
2018-12-17T11:25:52.076Z,102318.08
2018-12-17T11:28:21.228Z,102318.22
2018-12-17T11:30:50.340Z,102323.04
2018-12-17T11:33:19.402Z,102322.16
2018-12-17T11:35:48.465Z,102321.80
2018-12-17T11:38:17.556Z,102319.44
2018-12-17T11:40:46.608Z,102312.50
2018-12-17T11:43:15.671Z,102314.78
2018-12-17T11:45:44.756Z,102318.27
2018-12-17T11:48:13.815Z,102317.62
2018-12-17T11:50:42.869Z,102322.66
2018-12-17T11:53:11.993Z,102314.91
2018-12-17T11:55:41.054Z,102320.33
2018-12-17T11:58:10.128Z,102316.26
2018-12-17T12:00:39.226Z,102308.20
2018-12-17T12:03:08.282Z,102309.74
2018-12-17T12:05:37.344Z,102310.88
2018-12-17T12:08:06.434Z,102307.87
2018-12-17T12:10:35.486Z,102311.05
2018-12-17T12:13:04.555Z,102309.20
2018-12-17T12:15:33.685Z,102311.70
2018-12-17T12:18:02.751Z,102313.92
2018-12-17T12:20:31.807Z,102315.06
2018-12-17T12:23:00.899Z,102318.05
2018-12-17T12:25:29.965Z,102315.48
2018-12-17T12:27:59.015Z,102319.44
2018-12-17T12:30:28.096Z,102331.66
2018-12-17T12:32:57.164Z,102335.21
2018-12-17T12:35:26.224Z,102337.00
2018-12-17T12:37:55.360Z,102338.06
2018-12-17T12:40:24.409Z,102340.12
2018-12-17T12:42:53.465Z,102347.11
2018-12-17T12:45:22.569Z,102342.30
2018-12-17T12:47:51.625Z,102350.52
2018-12-17T12:50:20.686Z,102347.91
2018-12-17T12:52:49.871Z,102350.34
2018-12-17T12:55:18.938Z,102357.84
2018-12-17T12:57:48.000Z,102347.86
2018-12-17T13:00:17.088Z,102353.95
2018-12-17T13:02:46.144Z,102352.53
2018-12-17T13:05:15.220Z,102353.00
2018-12-17T13:07:44.326Z,102351.60
2018-12-17T13:10:13.414Z,102356.50
2018-12-17T13:12:42.445Z,102360.45
2018-12-17T13:15:11.768Z,102355.98
2018-12-17T13:17:40.615Z,102348.44
2018-12-17T13:20:09.677Z,102356.48
2018-12-17T13:22:38.897Z,102363.91
2018-12-17T13:25:07.969Z,102363.64
2018-12-17T13:27:37.039Z,102363.13
2018-12-17T13:30:06.147Z,102369.41
2018-12-17T13:32:35.215Z,102375.97
2018-12-17T13:35:04.375Z,102379.31
2018-12-17T13:37:33.458Z,102377.02
2018-12-17T13:40:02.534Z,102383.74
2018-12-17T13:42:31.606Z,102377.53
2018-12-17T13:45:00.713Z,102379.71
2018-12-17T13:47:29.768Z,102391.55
2018-12-17T13:49:58.818Z,102387.03
2018-12-17T13:52:33.606Z,102397.28
2018-12-17T13:55:02.447Z,102401.13
2018-12-17T13:57:31.502Z,102395.01
2018-12-17T14:00:00.622Z,102398.83
2018-12-17T14:02:29.680Z,102401.42
2018-12-17T14:04:58.744Z,102405.84
2018-12-17T14:07:27.960Z,102400.15
2018-12-17T14:10:02.419Z,102406.81
2018-12-17T14:12:31.506Z,102404.81
2018-12-17T14:15:00.582Z,102413.70
2018-12-17T14:17:35.241Z,102420.27
2018-12-17T14:20:09.897Z,102425.36
2018-12-17T14:22:39.017Z,102420.97
2018-12-17T14:25:08.073Z,102423.45
2018-12-17T14:27:37.175Z,102429.96
2018-12-17T14:30:06.489Z,102425.88
2018-12-17T14:32:35.549Z,102428.48
2018-12-17T14:35:04.614Z,102429.95
2018-12-17T14:37:33.710Z,102427.03
2018-12-17T14:40:02.760Z,102426.00
2018-12-17T14:42:31.814Z,102435.06
2018-12-17T14:45:00.924Z,102427.18
2018-12-17T14:47:29.982Z,102424.97
2018-12-17T14:49:59.073Z,102423.76
2018-12-17T14:52:28.172Z,102432.61
2018-12-17T14:54:57.240Z,102432.95
2018-12-17T14:57:26.296Z,102432.88
2018-12-17T14:59:55.390Z,102444.43
2018-12-17T15:02:24.452Z,102453.33
2018-12-17T15:04:53.522Z,102452.48
2018-12-17T15:07:22.623Z,102452.78
2018-12-17T15:09:51.687Z,102457.34
2018-12-17T15:12:20.771Z,102461.63
2018-12-17T15:14:49.871Z,102461.64
2018-12-17T15:17:18.961Z,102465.34
2018-12-17T15:19:48.035Z,102468.16
2018-12-17T15:22:17.222Z,102469.34
2018-12-17T15:24:46.303Z,102471.69
2018-12-17T15:27:15.344Z,102465.61
2018-12-17T15:29:44.550Z,102473.11
2018-12-17T15:32:13.613Z,102473.68
2018-12-17T15:34:42.672Z,102480.23
2018-12-17T15:37:11.813Z,102482.41
2018-12-17T15:39:40.876Z,102488.80
2018-12-17T15:42:09.944Z,102493.42
2018-12-17T15:44:39.374Z,102503.28
2018-12-17T15:47:08.425Z,102498.77
2018-12-17T15:49:37.486Z,102501.00
2018-12-17T15:52:06.820Z,102508.78
2018-12-17T15:54:35.654Z,102515.16
2018-12-17T15:57:04.710Z,102511.45
2018-12-17T15:59:34.006Z,102515.70
2018-12-17T16:02:03.061Z,102512.98
2018-12-17T16:04:32.127Z,102520.63
2018-12-17T16:07:01.224Z,102517.85
2018-12-17T16:09:30.261Z,102517.31
2018-12-17T16:11:59.354Z,102521.26
2018-12-17T16:14:28.446Z,102518.52
2018-12-17T16:16:57.536Z,102532.97
2018-12-17T16:19:26.594Z,102534.59
2018-12-17T16:21:55.692Z,102532.59
2018-12-17T16:24:24.753Z,102531.39
2018-12-17T16:26:53.821Z,102531.39
2018-12-17T16:29:22.923Z,102534.70
2018-12-17T16:31:57.256Z,102539.54
2018-12-17T16:34:21.058Z,102549.45
2018-12-17T16:36:50.190Z,102546.35
2018-12-17T16:39:19.245Z,102551.69
2018-12-17T16:41:48.300Z,102547.33
2018-12-17T16:44:17.396Z,102548.29
2018-12-17T16:46:46.477Z,102545.27
2018-12-17T16:49:15.535Z,102556.92
2018-12-17T16:51:44.620Z,102554.88
2018-12-17T16:54:13.688Z,102556.98
2018-12-17T16:56:42.759Z,102559.33
2018-12-17T16:59:11.913Z,102552.33
2018-12-17T17:01:40.983Z,102554.88
2018-12-17T17:04:10.083Z,102552.97
2018-12-17T17:06:40.156Z,102560.00
2018-12-17T17:09:09.221Z,102563.98
2018-12-17T17:11:38.294Z,102567.89
2018-12-17T17:14:07.383Z,102577.11
2018-12-17T17:16:36.458Z,102574.26
2018-12-17T17:19:05.524Z,102579.62
2018-12-17T17:21:34.623Z,102577.17
2018-12-17T17:24:03.688Z,102570.38
2018-12-17T17:26:33.720Z,102579.05
2018-12-17T17:29:02.802Z,102575.13
2018-12-17T17:31:31.858Z,102569.11
2018-12-17T17:34:00.917Z,102567.36
2018-12-17T17:36:31.059Z,102575.75
2018-12-17T17:39:00.132Z,102577.51
2018-12-17T17:41:29.187Z,102576.97
2018-12-17T17:43:58.319Z,102579.34
2018-12-17T17:46:27.375Z,102590.41
2018-12-17T17:48:56.434Z,102595.34
2018-12-17T17:51:25.532Z,102602.94
2018-12-17T17:53:54.604Z,102609.52
2018-12-17T17:56:24.611Z,102600.71
2018-12-17T17:58:53.712Z,102605.36
2018-12-17T18:01:22.792Z,102597.06
2018-12-17T18:03:51.856Z,102605.70
2018-12-17T18:06:20.972Z,102607.55
2018-12-17T18:08:50.041Z,102604.84
2018-12-17T18:11:19.108Z,102613.73
2018-12-17T18:13:48.198Z,102621.88
2018-12-17T18:16:18.297Z,102614.88
2018-12-17T18:18:47.365Z,102613.47
2018-12-17T18:21:16.461Z,102609.83
2018-12-17T18:23:45.533Z,102605.14
2018-12-17T18:26:14.619Z,102609.63
2018-12-17T18:28:43.713Z,102619.18
2018-12-17T18:31:12.784Z,102624.67
2018-12-17T18:33:41.844Z,102633.94
2018-12-17T18:36:10.922Z,102631.24
2018-12-17T18:38:39.978Z,102634.86
2018-12-17T18:41:09.045Z,102636.94
2018-12-17T18:43:38.124Z,102648.44
2018-12-17T18:46:07.181Z,102648.25
2018-12-17T18:48:36.242Z,102648.72
2018-12-17T18:51:05.367Z,102649.91
2018-12-17T18:53:34.427Z,102653.17
2018-12-17T18:56:03.492Z,102655.67
2018-12-17T18:58:32.586Z,102656.92
2018-12-17T19:01:01.654Z,102660.05
2018-12-17T19:03:30.946Z,102663.19
2018-12-17T19:05:59.827Z,102664.66
2018-12-17T19:08:29.112Z,102665.66
2018-12-17T19:10:57.939Z,102658.97
2018-12-17T19:13:27.396Z,102662.73
2018-12-17T19:15:56.217Z,102662.26
2018-12-17T19:18:25.267Z,102663.47
2018-12-17T19:20:54.349Z,102658.03
2018-12-17T19:23:23.405Z,102663.13
2018-12-17T19:25:52.462Z,102665.61
2018-12-17T19:28:21.556Z,102659.45
2018-12-17T19:30:50.857Z,102656.31
2018-12-17T19:33:19.714Z,102657.69
2018-12-17T19:35:48.822Z,102659.05
2018-12-17T19:38:17.886Z,102666.22
2018-12-17T19:40:46.960Z,102668.44
2018-12-17T19:43:16.081Z,102670.45
2018-12-17T19:45:45.159Z,102671.36
2018-12-17T19:48:14.236Z,102669.03
2018-12-17T19:50:43.579Z,102673.31
2018-12-17T19:53:12.719Z,102663.89
2018-12-17T19:55:41.959Z,102661.72
2018-12-17T19:58:11.091Z,102662.20
2018-12-17T20:00:39.933Z,102665.40
2018-12-17T20:03:08.997Z,102674.61
2018-12-17T20:05:38.096Z,102672.45
2018-12-17T20:08:07.176Z,102670.77
2018-12-17T20:10:36.236Z,102680.55
2018-12-17T20:13:05.364Z,102678.75
2018-12-17T20:15:34.445Z,102676.89
2018-12-17T20:18:03.535Z,102680.80
2018-12-17T20:20:32.642Z,102684.19
2018-12-17T20:23:01.718Z,102690.05
2018-12-17T20:25:30.810Z,102698.06
2018-12-17T20:27:59.909Z,102687.70
2018-12-17T20:30:28.994Z,102694.27
2018-12-17T20:32:58.075Z,102689.92
2018-12-17T20:35:27.183Z,102693.91
2018-12-17T20:37:56.267Z,102694.48
2018-12-17T20:40:25.327Z,102699.52
2018-12-17T20:42:54.451Z,102702.09
2018-12-17T20:45:23.503Z,102704.20
2018-12-17T20:47:52.588Z,102703.38
2018-12-17T20:50:21.712Z,102698.86
2018-12-17T20:52:50.815Z,102707.80
2018-12-17T20:55:19.872Z,102706.41
2018-12-17T20:57:48.941Z,102710.61
2018-12-17T21:00:18.017Z,102712.19
2018-12-17T21:02:47.097Z,102710.98
2018-12-17T21:05:16.194Z,102714.73
2018-12-17T21:07:45.276Z,102718.56
2018-12-17T21:10:14.344Z,102722.54
2018-12-17T21:12:43.440Z,102722.38
2018-12-17T21:15:12.754Z,102725.19
2018-12-17T21:17:41.606Z,102731.80
2018-12-17T21:20:10.716Z,102724.42
2018-12-17T21:22:39.896Z,102729.16
2018-12-17T21:25:08.973Z,102729.48
2018-12-17T21:27:38.096Z,102730.67
2018-12-17T21:30:07.296Z,102743.20
2018-12-17T21:32:36.361Z,102738.75
2018-12-17T21:35:05.439Z,102741.50
2018-12-17T21:37:34.504Z,102747.89
2018-12-17T21:40:03.761Z,102742.03
2018-12-17T21:42:32.864Z,102747.67
2018-12-17T21:45:02.065Z,102744.44
2018-12-17T21:47:31.150Z,102745.53
2018-12-17T21:50:00.524Z,102751.00
2018-12-17T21:52:29.584Z,102754.44
2018-12-17T21:54:58.652Z,102754.86
2018-12-17T21:57:27.734Z,102760.53
2018-12-17T21:59:56.800Z,102754.25
2018-12-17T22:02:25.861Z,102759.67
2018-12-17T22:04:55.050Z,102760.00
2018-12-17T22:07:24.114Z,102766.42
2018-12-17T22:09:53.179Z,102764.03
2018-12-17T22:12:23.141Z,102765.12
2018-12-17T22:14:52.204Z,102774.64
2018-12-17T22:17:21.284Z,102780.44
2018-12-17T22:19:50.368Z,102780.88
2018-12-17T22:22:19.421Z,102771.52
2018-12-17T22:24:48.487Z,102779.15
2018-12-17T22:27:17.579Z,102778.07
2018-12-17T22:29:46.629Z,102776.05
2018-12-17T22:32:15.734Z,102779.48
2018-12-17T22:34:44.894Z,102773.41
2018-12-17T22:37:13.948Z,102766.66
2018-12-17T22:39:43.014Z,102766.89
2018-12-17T22:42:12.176Z,102760.88
2018-12-17T22:44:41.237Z,102760.36
2018-12-17T22:47:10.283Z,102761.98
2018-12-17T22:49:39.378Z,102761.54
2018-12-17T22:52:08.434Z,102766.42
2018-12-17T22:54:37.492Z,102766.21
2018-12-17T22:57:06.594Z,102763.80
2018-12-17T22:59:35.664Z,102766.02
2018-12-17T23:02:04.729Z,102766.36
2018-12-17T23:04:35.171Z,102776.50
2018-12-17T23:07:04.285Z,102764.66
2018-12-17T23:09:44.972Z,102762.88
2018-12-17T23:12:25.672Z,102765.96
2018-12-17T23:15:06.318Z,102766.06
2018-12-17T23:17:40.676Z,102761.09
2018-12-17T23:20:09.988Z,102769.55
2018-12-17T23:22:38.818Z,102770.06
2018-12-17T23:25:07.907Z,102772.09
2018-12-17T23:27:36.973Z,102773.52
2018-12-17T23:30:06.039Z,102775.13
2018-12-17T23:32:35.102Z,102783.94
2018-12-17T23:35:04.225Z,102781.77
2018-12-17T23:37:33.305Z,102774.02
2018-12-17T23:40:02.383Z,102778.11
2018-12-17T23:42:31.451Z,102782.23
2018-12-17T23:45:00.514Z,102775.13
2018-12-17T23:47:29.574Z,102771.43
2018-12-17T23:49:58.652Z,102777.55
2018-12-17T23:52:27.712Z,102772.41
2018-12-17T23:54:56.773Z,102778.59
2018-12-17T23:57:25.865Z,102774.78
2018-12-17T23:59:54.987Z,102781.02
